sensor_id;sensor_type;location;lat;lon;timestamp;P1;durP1;ratioP1;P2;durP2;ratioP2
34196;SDS011;36594;45.192;5.722;2023-04-24T00:01:23;0.90;;;0.90;;
34196;SDS011;36594;45.192;5.722;2023-04-24T00:04:12;1.70;;;1.10;;
34196;SDS011;36594;45.192;5.722;2023-04-24T00:07:01;1.02;;;1.02;;
34196;SDS011;36594;45.192;5.722;2023-04-24T00:09:50;1.27;;;1.17;;
34196;SDS011;36594;45.192;5.722;2023-04-24T00:12:38;1.22;;;1.12;;
34196;SDS011;36594;45.192;5.722;2023-04-24T00:15:26;1.12;;;1.05;;
34196;SDS011;36594;45.192;5.722;2023-04-24T00:18:14;1.45;;;1.05;;
34196;SDS011;36594;45.192;5.722;2023-04-24T00:21:03;1.22;;;1.12;;
34196;SDS011;36594;45.192;5.722;2023-04-24T00:23:52;1.05;;;1.05;;
34196;SDS011;36594;45.192;5.722;2023-04-24T00:26:41;0.90;;;0.90;;
34196;SDS011;36594;45.192;5.722;2023-04-24T00:29:29;1.22;;;0.90;;
34196;SDS011;36594;45.192;5.722;2023-04-24T00:32:18;1.27;;;1.17;;
34196;SDS011;36594;45.192;5.722;2023-04-24T00:35:08;1.15;;;1.00;;
34196;SDS011;36594;45.192;5.722;2023-04-24T00:37:57;0.90;;;0.90;;
34196;SDS011;36594;45.192;5.722;2023-04-24T00:40:45;1.37;;;1.27;;
34196;SDS011;36594;45.192;5.722;2023-04-24T00:43:34;1.02;;;0.80;;
34196;SDS011;36594;45.192;5.722;2023-04-24T00:46:22;1.10;;;1.00;;
34196;SDS011;36594;45.192;5.722;2023-04-24T00:49:10;1.07;;;0.90;;
34196;SDS011;36594;45.192;5.722;2023-04-24T00:52:00;0.90;;;0.90;;
34196;SDS011;36594;45.192;5.722;2023-04-24T00:54:50;0.82;;;0.82;;
34196;SDS011;36594;45.192;5.722;2023-04-24T00:57:39;0.85;;;0.85;;
34196;SDS011;36594;45.192;5.722;2023-04-24T01:00:27;1.10;;;1.00;;
34196;SDS011;36594;45.192;5.722;2023-04-24T01:03:18;0.85;;;0.85;;
34196;SDS011;36594;45.192;5.722;2023-04-24T01:06:09;1.07;;;0.90;;
34196;SDS011;36594;45.192;5.722;2023-04-24T01:08:59;0.80;;;0.80;;
34196;SDS011;36594;45.192;5.722;2023-04-24T01:11:49;1.00;;;1.00;;
34196;SDS011;36594;45.192;5.722;2023-04-24T01:14:38;0.97;;;0.93;;
34196;SDS011;36594;45.192;5.722;2023-04-24T01:17:27;1.37;;;0.75;;
34196;SDS011;36594;45.192;5.722;2023-04-24T01:20:16;1.80;;;0.90;;
34196;SDS011;36594;45.192;5.722;2023-04-24T01:23:08;0.93;;;0.93;;
34196;SDS011;36594;45.192;5.722;2023-04-24T01:25:57;1.10;;;0.90;;
34196;SDS011;36594;45.192;5.722;2023-04-24T01:28:46;1.25;;;0.90;;
34196;SDS011;36594;45.192;5.722;2023-04-24T01:31:35;0.70;;;0.70;;
34196;SDS011;36594;45.192;5.722;2023-04-24T01:34:25;1.07;;;0.98;;
34196;SDS011;36594;45.192;5.722;2023-04-24T01:37:14;0.88;;;0.88;;
34196;SDS011;36594;45.192;5.722;2023-04-24T01:40:04;0.90;;;0.90;;
34196;SDS011;36594;45.192;5.722;2023-04-24T01:42:53;0.95;;;0.95;;
34196;SDS011;36594;45.192;5.722;2023-04-24T01:45:42;1.60;;;0.60;;
34196;SDS011;36594;45.192;5.722;2023-04-24T01:48:31;0.68;;;0.68;;
34196;SDS011;36594;45.192;5.722;2023-04-24T01:51:21;0.93;;;0.60;;
34196;SDS011;36594;45.192;5.722;2023-04-24T01:54:09;0.70;;;0.70;;
34196;SDS011;36594;45.192;5.722;2023-04-24T01:56:57;0.70;;;0.70;;
34196;SDS011;36594;45.192;5.722;2023-04-24T01:59:48;0.88;;;0.88;;
34196;SDS011;36594;45.192;5.722;2023-04-24T02:02:37;1.00;;;0.80;;
34196;SDS011;36594;45.192;5.722;2023-04-24T02:05:27;0.70;;;0.70;;
34196;SDS011;36594;45.192;5.722;2023-04-24T02:08:16;1.52;;;0.88;;
34196;SDS011;36594;45.192;5.722;2023-04-24T02:11:04;0.60;;;0.60;;
34196;SDS011;36594;45.192;5.722;2023-04-24T02:13:53;1.00;;;0.70;;
34196;SDS011;36594;45.192;5.722;2023-04-24T02:16:41;0.70;;;0.70;;
34196;SDS011;36594;45.192;5.722;2023-04-24T02:19:30;0.90;;;0.90;;
34196;SDS011;36594;45.192;5.722;2023-04-24T02:22:19;1.50;;;0.60;;
34196;SDS011;36594;45.192;5.722;2023-04-24T02:25:07;0.62;;;0.62;;
34196;SDS011;36594;45.192;5.722;2023-04-24T02:27:56;0.60;;;0.60;;
34196;SDS011;36594;45.192;5.722;2023-04-24T02:30:45;0.70;;;0.70;;
34196;SDS011;36594;45.192;5.722;2023-04-24T02:33:34;0.60;;;0.60;;
34196;SDS011;36594;45.192;5.722;2023-04-24T02:36:23;0.68;;;0.62;;
34196;SDS011;36594;45.192;5.722;2023-04-24T02:39:11;0.70;;;0.70;;
34196;SDS011;36594;45.192;5.722;2023-04-24T02:42:01;0.80;;;0.80;;
34196;SDS011;36594;45.192;5.722;2023-04-24T02:44:50;0.60;;;0.60;;
34196;SDS011;36594;45.192;5.722;2023-04-24T02:47:38;0.80;;;0.80;;
34196;SDS011;36594;45.192;5.722;2023-04-24T02:50:27;0.78;;;0.78;;
34196;SDS011;36594;45.192;5.722;2023-04-24T02:53:16;0.68;;;0.68;;
34196;SDS011;36594;45.192;5.722;2023-04-24T02:56:04;0.68;;;0.55;;
34196;SDS011;36594;45.192;5.722;2023-04-24T02:58:52;0.80;;;0.80;;
34196;SDS011;36594;45.192;5.722;2023-04-24T03:01:41;0.60;;;0.60;;
34196;SDS011;36594;45.192;5.722;2023-04-24T03:04:29;0.60;;;0.60;;
34196;SDS011;36594;45.192;5.722;2023-04-24T03:07:18;0.70;;;0.70;;
34196;SDS011;36594;45.192;5.722;2023-04-24T03:10:07;0.80;;;0.70;;
34196;SDS011;36594;45.192;5.722;2023-04-24T03:12:56;0.70;;;0.70;;
34196;SDS011;36594;45.192;5.722;2023-04-24T03:15:45;0.90;;;0.40;;
34196;SDS011;36594;45.192;5.722;2023-04-24T03:18:34;0.40;;;0.40;;
34196;SDS011;36594;45.192;5.722;2023-04-24T03:21:23;0.70;;;0.70;;
34196;SDS011;36594;45.192;5.722;2023-04-24T03:24:12;0.60;;;0.57;;
34196;SDS011;36594;45.192;5.722;2023-04-24T03:27:01;0.70;;;0.70;;
34196;SDS011;36594;45.192;5.722;2023-04-24T03:30:09;0.75;;;0.60;;
34196;SDS011;36594;45.192;5.722;2023-04-24T03:33:02;0.57;;;0.57;;
34196;SDS011;36594;45.192;5.722;2023-04-24T03:35:52;0.98;;;0.70;;
34196;SDS011;36594;45.192;5.722;2023-04-24T03:38:41;0.62;;;0.62;;
34196;SDS011;36594;45.192;5.722;2023-04-24T03:41:43;1.00;;;0.72;;
34196;SDS011;36594;45.192;5.722;2023-04-24T03:44:33;0.50;;;0.50;;
34196;SDS011;36594;45.192;5.722;2023-04-24T03:47:21;0.60;;;0.60;;
34196;SDS011;36594;45.192;5.722;2023-04-24T03:50:10;0.70;;;0.70;;
34196;SDS011;36594;45.192;5.722;2023-04-24T03:52:59;0.60;;;0.60;;
34196;SDS011;36594;45.192;5.722;2023-04-24T03:55:55;0.70;;;0.70;;
34196;SDS011;36594;45.192;5.722;2023-04-24T03:58:44;0.50;;;0.50;;
34196;SDS011;36594;45.192;5.722;2023-04-24T04:01:32;0.30;;;0.30;;
34196;SDS011;36594;45.192;5.722;2023-04-24T04:04:24;0.30;;;0.30;;
34196;SDS011;36594;45.192;5.722;2023-04-24T04:07:13;0.50;;;0.50;;
34196;SDS011;36594;45.192;5.722;2023-04-24T04:10:01;0.50;;;0.50;;
34196;SDS011;36594;45.192;5.722;2023-04-24T04:12:50;0.50;;;0.50;;
34196;SDS011;36594;45.192;5.722;2023-04-24T04:15:38;0.88;;;0.40;;
34196;SDS011;36594;45.192;5.722;2023-04-24T04:18:27;0.40;;;0.40;;
34196;SDS011;36594;45.192;5.722;2023-04-24T04:21:16;0.60;;;0.60;;
34196;SDS011;36594;45.192;5.722;2023-04-24T04:24:05;0.60;;;0.40;;
34196;SDS011;36594;45.192;5.722;2023-04-24T04:26:55;0.53;;;0.40;;
34196;SDS011;36594;45.192;5.722;2023-04-24T04:29:46;0.40;;;0.40;;
34196;SDS011;36594;45.192;5.722;2023-04-24T04:32:35;0.30;;;0.30;;
34196;SDS011;36594;45.192;5.722;2023-04-24T04:35:23;0.30;;;0.30;;
34196;SDS011;36594;45.192;5.722;2023-04-24T04:38:12;0.40;;;0.40;;
34196;SDS011;36594;45.192;5.722;2023-04-24T04:41:03;0.45;;;0.40;;
34196;SDS011;36594;45.192;5.722;2023-04-24T04:43:52;0.70;;;0.70;;
34196;SDS011;36594;45.192;5.722;2023-04-24T04:46:40;0.57;;;0.57;;
34196;SDS011;36594;45.192;5.722;2023-04-24T04:49:31;0.40;;;0.40;;
34196;SDS011;36594;45.192;5.722;2023-04-24T04:52:21;1.57;;;0.50;;
34196;SDS011;36594;45.192;5.722;2023-04-24T04:55:13;0.60;;;0.60;;
34196;SDS011;36594;45.192;5.722;2023-04-24T04:58:19;0.50;;;0.50;;
34196;SDS011;36594;45.192;5.722;2023-04-24T05:01:09;0.42;;;0.42;;
34196;SDS011;36594;45.192;5.722;2023-04-24T05:03:59;1.30;;;0.50;;
34196;SDS011;36594;45.192;5.722;2023-04-24T05:06:48;0.53;;;0.53;;
34196;SDS011;36594;45.192;5.722;2023-04-24T05:09:38;0.45;;;0.45;;
34196;SDS011;36594;45.192;5.722;2023-04-24T05:12:26;0.47;;;0.40;;
34196;SDS011;36594;45.192;5.722;2023-04-24T05:15:16;0.50;;;0.50;;
34196;SDS011;36594;45.192;5.722;2023-04-24T05:18:04;0.40;;;0.40;;
34196;SDS011;36594;45.192;5.722;2023-04-24T05:20:53;1.40;;;0.82;;
34196;SDS011;36594;45.192;5.722;2023-04-24T05:23:43;1.60;;;0.53;;
34196;SDS011;36594;45.192;5.722;2023-04-24T05:26:33;0.37;;;0.37;;
34196;SDS011;36594;45.192;5.722;2023-04-24T05:29:22;0.65;;;0.62;;
34196;SDS011;36594;45.192;5.722;2023-04-24T05:32:13;0.70;;;0.50;;
34196;SDS011;36594;45.192;5.722;2023-04-24T05:35:01;0.50;;;0.50;;
34196;SDS011;36594;45.192;5.722;2023-04-24T05:37:50;0.40;;;0.40;;
34196;SDS011;36594;45.192;5.722;2023-04-24T05:40:39;0.80;;;0.40;;
34196;SDS011;36594;45.192;5.722;2023-04-24T05:43:27;0.50;;;0.50;;
34196;SDS011;36594;45.192;5.722;2023-04-24T05:46:16;0.40;;;0.40;;
34196;SDS011;36594;45.192;5.722;2023-04-24T05:49:04;0.30;;;0.30;;
34196;SDS011;36594;45.192;5.722;2023-04-24T05:51:53;0.70;;;0.40;;
34196;SDS011;36594;45.192;5.722;2023-04-24T05:54:41;0.35;;;0.35;;
34196;SDS011;36594;45.192;5.722;2023-04-24T05:57:30;0.60;;;0.50;;
34196;SDS011;36594;45.192;5.722;2023-04-24T06:00:20;0.45;;;0.45;;
34196;SDS011;36594;45.192;5.722;2023-04-24T06:03:10;0.53;;;0.40;;
34196;SDS011;36594;45.192;5.722;2023-04-24T06:05:58;0.30;;;0.30;;
34196;SDS011;36594;45.192;5.722;2023-04-24T06:08:47;0.47;;;0.47;;
34196;SDS011;36594;45.192;5.722;2023-04-24T06:11:35;0.70;;;0.70;;
34196;SDS011;36594;45.192;5.722;2023-04-24T06:14:25;0.50;;;0.40;;
34196;SDS011;36594;45.192;5.722;2023-04-24T06:17:24;0.30;;;0.30;;
34196;SDS011;36594;45.192;5.722;2023-04-24T06:20:13;0.72;;;0.60;;
34196;SDS011;36594;45.192;5.722;2023-04-24T06:23:01;0.55;;;0.55;;
34196;SDS011;36594;45.192;5.722;2023-04-24T06:25:51;0.57;;;0.47;;
34196;SDS011;36594;45.192;5.722;2023-04-24T06:28:40;0.42;;;0.42;;
34196;SDS011;36594;45.192;5.722;2023-04-24T06:31:28;0.40;;;0.40;;
34196;SDS011;36594;45.192;5.722;2023-04-24T06:34:16;0.45;;;0.45;;
34196;SDS011;36594;45.192;5.722;2023-04-24T06:37:05;0.50;;;0.50;;
34196;SDS011;36594;45.192;5.722;2023-04-24T06:39:54;1.55;;;0.50;;
34196;SDS011;36594;45.192;5.722;2023-04-24T06:42:42;0.60;;;0.50;;
34196;SDS011;36594;45.192;5.722;2023-04-24T06:45:31;0.30;;;0.30;;
34196;SDS011;36594;45.192;5.722;2023-04-24T06:48:19;0.60;;;0.60;;
34196;SDS011;36594;45.192;5.722;2023-04-24T06:51:08;0.70;;;0.50;;
34196;SDS011;36594;45.192;5.722;2023-04-24T06:53:56;0.53;;;0.53;;
34196;SDS011;36594;45.192;5.722;2023-04-24T06:56:44;0.25;;;0.25;;
34196;SDS011;36594;45.192;5.722;2023-04-24T06:59:34;0.60;;;0.60;;
34196;SDS011;36594;45.192;5.722;2023-04-24T07:02:22;0.88;;;0.45;;
34196;SDS011;36594;45.192;5.722;2023-04-24T07:05:11;0.30;;;0.30;;
34196;SDS011;36594;45.192;5.722;2023-04-24T07:07:59;0.50;;;0.40;;
34196;SDS011;36594;45.192;5.722;2023-04-24T07:10:49;0.40;;;0.40;;
34196;SDS011;36594;45.192;5.722;2023-04-24T07:13:37;0.80;;;0.40;;
34196;SDS011;36594;45.192;5.722;2023-04-24T07:16:27;0.50;;;0.50;;
34196;SDS011;36594;45.192;5.722;2023-04-24T07:19:17;0.30;;;0.30;;
34196;SDS011;36594;45.192;5.722;2023-04-24T07:22:05;0.53;;;0.53;;
34196;SDS011;36594;45.192;5.722;2023-04-24T07:24:53;0.47;;;0.47;;
34196;SDS011;36594;45.192;5.722;2023-04-24T07:27:41;0.30;;;0.30;;
34196;SDS011;36594;45.192;5.722;2023-04-24T07:30:30;0.25;;;0.25;;
34196;SDS011;36594;45.192;5.722;2023-04-24T07:33:20;0.30;;;0.30;;
34196;SDS011;36594;45.192;5.722;2023-04-24T07:36:08;0.50;;;0.50;;
34196;SDS011;36594;45.192;5.722;2023-04-24T07:38:58;0.42;;;0.42;;
34196;SDS011;36594;45.192;5.722;2023-04-24T07:41:46;0.57;;;0.57;;
34196;SDS011;36594;45.192;5.722;2023-04-24T07:44:34;0.20;;;0.20;;
34196;SDS011;36594;45.192;5.722;2023-04-24T07:47:22;0.28;;;0.28;;
34196;SDS011;36594;45.192;5.722;2023-04-24T07:50:11;0.47;;;0.47;;
34196;SDS011;36594;45.192;5.722;2023-04-24T07:53:00;0.50;;;0.33;;
34196;SDS011;36594;45.192;5.722;2023-04-24T07:55:48;0.40;;;0.40;;
34196;SDS011;36594;45.192;5.722;2023-04-24T07:58:36;0.50;;;0.50;;
34196;SDS011;36594;45.192;5.722;2023-04-24T08:01:25;0.35;;;0.35;;
34196;SDS011;36594;45.192;5.722;2023-04-24T08:04:13;0.30;;;0.30;;
34196;SDS011;36594;45.192;5.722;2023-04-24T08:07:02;0.50;;;0.33;;
34196;SDS011;36594;45.192;5.722;2023-04-24T08:09:51;0.40;;;0.40;;
34196;SDS011;36594;45.192;5.722;2023-04-24T08:12:39;0.80;;;0.80;;
34196;SDS011;36594;45.192;5.722;2023-04-24T08:15:28;0.28;;;0.28;;
34196;SDS011;36594;45.192;5.722;2023-04-24T08:18:16;0.28;;;0.28;;
34196;SDS011;36594;45.192;5.722;2023-04-24T08:21:04;0.33;;;0.33;;
34196;SDS011;36594;45.192;5.722;2023-04-24T08:23:53;0.40;;;0.40;;
34196;SDS011;36594;45.192;5.722;2023-04-24T08:26:42;0.20;;;0.20;;
34196;SDS011;36594;45.192;5.722;2023-04-24T08:29:30;0.40;;;0.40;;
34196;SDS011;36594;45.192;5.722;2023-04-24T08:32:19;0.60;;;0.40;;
34196;SDS011;36594;45.192;5.722;2023-04-24T08:35:08;0.20;;;0.20;;
34196;SDS011;36594;45.192;5.722;2023-04-24T08:37:56;0.57;;;0.50;;
34196;SDS011;36594;45.192;5.722;2023-04-24T08:40:44;0.40;;;0.40;;
34196;SDS011;36594;45.192;5.722;2023-04-24T08:43:34;0.30;;;0.30;;
34196;SDS011;36594;45.192;5.722;2023-04-24T08:46:24;0.40;;;0.40;;
34196;SDS011;36594;45.192;5.722;2023-04-24T08:49:14;0.60;;;0.40;;
34196;SDS011;36594;45.192;5.722;2023-04-24T08:52:03;0.30;;;0.30;;
34196;SDS011;36594;45.192;5.722;2023-04-24T08:54:53;0.30;;;0.30;;
34196;SDS011;36594;45.192;5.722;2023-04-24T08:57:42;0.72;;;0.62;;
34196;SDS011;36594;45.192;5.722;2023-04-24T09:00:31;0.40;;;0.40;;
34196;SDS011;36594;45.192;5.722;2023-04-24T09:03:20;0.40;;;0.40;;
34196;SDS011;36594;45.192;5.722;2023-04-24T09:06:09;0.40;;;0.40;;
34196;SDS011;36594;45.192;5.722;2023-04-24T09:09:00;0.40;;;0.40;;
34196;SDS011;36594;45.192;5.722;2023-04-24T09:11:51;0.33;;;0.33;;
34196;SDS011;36594;45.192;5.722;2023-04-24T09:14:42;0.30;;;0.30;;
34196;SDS011;36594;45.192;5.722;2023-04-24T09:17:31;0.30;;;0.30;;
34196;SDS011;36594;45.192;5.722;2023-04-24T09:20:22;0.60;;;0.20;;
34196;SDS011;36594;45.192;5.722;2023-04-24T09:23:10;0.33;;;0.33;;
34196;SDS011;36594;45.192;5.722;2023-04-24T09:26:02;0.30;;;0.30;;
34196;SDS011;36594;45.192;5.722;2023-04-24T09:28:54;0.50;;;0.50;;
34196;SDS011;36594;45.192;5.722;2023-04-24T09:31:43;2.00;;;0.30;;
34196;SDS011;36594;45.192;5.722;2023-04-24T09:34:33;0.30;;;0.30;;
34196;SDS011;36594;45.192;5.722;2023-04-24T09:37:28;0.20;;;0.20;;
34196;SDS011;36594;45.192;5.722;2023-04-24T09:40:18;0.50;;;0.40;;
34196;SDS011;36594;45.192;5.722;2023-04-24T09:43:11;0.30;;;0.30;;
34196;SDS011;36594;45.192;5.722;2023-04-24T09:46:00;0.40;;;0.40;;
34196;SDS011;36594;45.192;5.722;2023-04-24T09:48:53;0.35;;;0.35;;
34196;SDS011;36594;45.192;5.722;2023-04-24T09:51:42;0.30;;;0.30;;
34196;SDS011;36594;45.192;5.722;2023-04-24T09:54:30;0.30;;;0.30;;
34196;SDS011;36594;45.192;5.722;2023-04-24T09:57:19;0.60;;;0.40;;
34196;SDS011;36594;45.192;5.722;2023-04-24T10:00:09;0.35;;;0.35;;
34196;SDS011;36594;45.192;5.722;2023-04-24T10:02:59;0.37;;;0.37;;
34196;SDS011;36594;45.192;5.722;2023-04-24T10:05:49;0.40;;;0.40;;
34196;SDS011;36594;45.192;5.722;2023-04-24T10:08:40;0.20;;;0.20;;
34196;SDS011;36594;45.192;5.722;2023-04-24T10:11:29;0.20;;;0.20;;
34196;SDS011;36594;45.192;5.722;2023-04-24T10:14:19;0.42;;;0.37;;
34196;SDS011;36594;45.192;5.722;2023-04-24T10:17:09;0.23;;;0.23;;
34196;SDS011;36594;45.192;5.722;2023-04-24T10:20:00;0.33;;;0.33;;
34196;SDS011;36594;45.192;5.722;2023-04-24T10:22:49;0.35;;;0.35;;
34196;SDS011;36594;45.192;5.722;2023-04-24T10:25:39;0.80;;;0.40;;
34196;SDS011;36594;45.192;5.722;2023-04-24T10:28:30;0.30;;;0.30;;
34196;SDS011;36594;45.192;5.722;2023-04-24T10:31:19;0.23;;;0.23;;
34196;SDS011;36594;45.192;5.722;2023-04-24T10:34:09;0.27;;;0.27;;
34196;SDS011;36594;45.192;5.722;2023-04-24T10:36:58;0.25;;;0.25;;
34196;SDS011;36594;45.192;5.722;2023-04-24T10:39:49;0.20;;;0.20;;
34196;SDS011;36594;45.192;5.722;2023-04-24T10:42:39;0.40;;;0.40;;
34196;SDS011;36594;45.192;5.722;2023-04-24T10:45:31;0.30;;;0.30;;
34196;SDS011;36594;45.192;5.722;2023-04-24T10:48:20;0.25;;;0.25;;
34196;SDS011;36594;45.192;5.722;2023-04-24T10:51:12;0.30;;;0.30;;
34196;SDS011;36594;45.192;5.722;2023-04-24T10:54:00;0.40;;;0.40;;
34196;SDS011;36594;45.192;5.722;2023-04-24T10:56:52;0.20;;;0.20;;
34196;SDS011;36594;45.192;5.722;2023-04-24T10:59:41;0.23;;;0.23;;
34196;SDS011;36594;45.192;5.722;2023-04-24T11:02:39;0.30;;;0.30;;
34196;SDS011;36594;45.192;5.722;2023-04-24T11:06:12;0.20;;;0.20;;
34196;SDS011;36594;45.192;5.722;2023-04-24T11:08:37;0.37;;;0.37;;
34196;SDS011;36594;45.192;5.722;2023-04-24T11:11:33;0.28;;;0.28;;
34196;SDS011;36594;45.192;5.722;2023-04-24T11:14:23;0.33;;;0.33;;
34196;SDS011;36594;45.192;5.722;2023-04-24T11:17:26;0.20;;;0.20;;
34196;SDS011;36594;45.192;5.722;2023-04-24T11:20:03;0.28;;;0.28;;
34196;SDS011;36594;45.192;5.722;2023-04-24T11:23:00;0.20;;;0.20;;
34196;SDS011;36594;45.192;5.722;2023-04-24T11:26:05;0.30;;;0.30;;
34196;SDS011;36594;45.192;5.722;2023-04-24T11:28:46;1.00;;;0.40;;
34196;SDS011;36594;45.192;5.722;2023-04-24T11:31:36;1.53;;;0.30;;
34196;SDS011;36594;45.192;5.722;2023-04-24T11:34:27;0.30;;;0.30;;
34196;SDS011;36594;45.192;5.722;2023-04-24T11:37:16;0.30;;;0.30;;
34196;SDS011;36594;45.192;5.722;2023-04-24T11:40:06;1.00;;;0.45;;
34196;SDS011;36594;45.192;5.722;2023-04-24T11:42:56;0.40;;;0.40;;
34196;SDS011;36594;45.192;5.722;2023-04-24T11:45:50;0.30;;;0.30;;
34196;SDS011;36594;45.192;5.722;2023-04-24T11:48:44;0.20;;;0.20;;
34196;SDS011;36594;45.192;5.722;2023-04-24T11:51:30;0.20;;;0.20;;
34196;SDS011;36594;45.192;5.722;2023-04-24T11:54:18;0.30;;;0.30;;
34196;SDS011;36594;45.192;5.722;2023-04-24T11:57:06;0.30;;;0.30;;
34196;SDS011;36594;45.192;5.722;2023-04-24T11:59:55;0.30;;;0.30;;
34196;SDS011;36594;45.192;5.722;2023-04-24T12:02:44;0.60;;;0.23;;
34196;SDS011;36594;45.192;5.722;2023-04-24T12:05:32;0.30;;;0.30;;
34196;SDS011;36594;45.192;5.722;2023-04-24T12:08:27;0.30;;;0.30;;
34196;SDS011;36594;45.192;5.722;2023-04-24T12:11:17;0.30;;;0.30;;
34196;SDS011;36594;45.192;5.722;2023-04-24T12:14:09;0.20;;;0.20;;
34196;SDS011;36594;45.192;5.722;2023-04-24T12:16:59;0.23;;;0.23;;
34196;SDS011;36594;45.192;5.722;2023-04-24T12:19:49;0.70;;;0.33;;
34196;SDS011;36594;45.192;5.722;2023-04-24T12:22:44;0.30;;;0.30;;
34196;SDS011;36594;45.192;5.722;2023-04-24T12:25:38;0.20;;;0.20;;
34196;SDS011;36594;45.192;5.722;2023-04-24T12:28:34;0.28;;;0.28;;
34196;SDS011;36594;45.192;5.722;2023-04-24T12:31:23;0.30;;;0.30;;
34196;SDS011;36594;45.192;5.722;2023-04-24T12:34:20;0.30;;;0.20;;
34196;SDS011;36594;45.192;5.722;2023-04-24T12:37:12;0.50;;;0.50;;
34196;SDS011;36594;45.192;5.722;2023-04-24T12:42:55;0.30;;;0.30;;
34196;SDS011;36594;45.192;5.722;2023-04-24T12:45:44;0.90;;;0.42;;
34196;SDS011;36594;45.192;5.722;2023-04-24T12:48:33;0.35;;;0.20;;
34196;SDS011;36594;45.192;5.722;2023-04-24T12:51:21;0.40;;;0.40;;
34196;SDS011;36594;45.192;5.722;2023-04-24T12:54:11;0.30;;;0.30;;
34196;SDS011;36594;45.192;5.722;2023-04-24T12:56:59;0.30;;;0.30;;
34196;SDS011;36594;45.192;5.722;2023-04-24T12:59:47;0.25;;;0.20;;
34196;SDS011;36594;45.192;5.722;2023-04-24T13:02:37;0.20;;;0.20;;
34196;SDS011;36594;45.192;5.722;2023-04-24T13:05:25;0.23;;;0.23;;
34196;SDS011;36594;45.192;5.722;2023-04-24T13:08:13;0.23;;;0.23;;
34196;SDS011;36594;45.192;5.722;2023-04-24T13:11:01;0.30;;;0.30;;
34196;SDS011;36594;45.192;5.722;2023-04-24T13:13:50;0.20;;;0.20;;
34196;SDS011;36594;45.192;5.722;2023-04-24T13:16:38;0.40;;;0.40;;
34196;SDS011;36594;45.192;5.722;2023-04-24T13:19:27;0.42;;;0.40;;
34196;SDS011;36594;45.192;5.722;2023-04-24T13:22:15;0.30;;;0.30;;
34196;SDS011;36594;45.192;5.722;2023-04-24T13:25:06;0.70;;;0.70;;
34196;SDS011;36594;45.192;5.722;2023-04-24T13:27:55;0.40;;;0.40;;
34196;SDS011;36594;45.192;5.722;2023-04-24T13:30:43;0.23;;;0.23;;
34196;SDS011;36594;45.192;5.722;2023-04-24T13:33:31;0.30;;;0.30;;
34196;SDS011;36594;45.192;5.722;2023-04-24T13:36:20;0.30;;;0.30;;
34196;SDS011;36594;45.192;5.722;2023-04-24T13:39:08;0.30;;;0.30;;
34196;SDS011;36594;45.192;5.722;2023-04-24T13:41:58;0.40;;;0.40;;
34196;SDS011;36594;45.192;5.722;2023-04-24T13:44:47;0.40;;;0.40;;
34196;SDS011;36594;45.192;5.722;2023-04-24T13:47:35;0.25;;;0.25;;
34196;SDS011;36594;45.192;5.722;2023-04-24T13:50:25;0.33;;;0.33;;
34196;SDS011;36594;45.192;5.722;2023-04-24T13:53:13;0.28;;;0.28;;
34196;SDS011;36594;45.192;5.722;2023-04-24T13:56:02;0.30;;;0.30;;
34196;SDS011;36594;45.192;5.722;2023-04-24T13:58:50;0.35;;;0.35;;
34196;SDS011;36594;45.192;5.722;2023-04-24T14:01:40;0.30;;;0.30;;
34196;SDS011;36594;45.192;5.722;2023-04-24T14:04:29;0.30;;;0.30;;
34196;SDS011;36594;45.192;5.722;2023-04-24T14:07:17;0.20;;;0.20;;
34196;SDS011;36594;45.192;5.722;2023-04-24T14:10:06;0.15;;;0.15;;
34196;SDS011;36594;45.192;5.722;2023-04-24T14:12:55;0.30;;;0.30;;
34196;SDS011;36594;45.192;5.722;2023-04-24T14:15:43;0.30;;;0.30;;
34196;SDS011;36594;45.192;5.722;2023-04-24T14:18:32;0.40;;;0.40;;
34196;SDS011;36594;45.192;5.722;2023-04-24T14:21:20;0.20;;;0.20;;
34196;SDS011;36594;45.192;5.722;2023-04-24T14:24:08;0.20;;;0.20;;
34196;SDS011;36594;45.192;5.722;2023-04-24T14:26:57;0.20;;;0.20;;
34196;SDS011;36594;45.192;5.722;2023-04-24T14:29:45;0.20;;;0.20;;
34196;SDS011;36594;45.192;5.722;2023-04-24T14:32:33;0.40;;;0.28;;
34196;SDS011;36594;45.192;5.722;2023-04-24T14:35:22;0.30;;;0.30;;
34196;SDS011;36594;45.192;5.722;2023-04-24T14:38:11;0.30;;;0.30;;
34196;SDS011;36594;45.192;5.722;2023-04-24T14:40:59;0.37;;;0.37;;
34196;SDS011;36594;45.192;5.722;2023-04-24T14:43:47;0.13;;;0.13;;
34196;SDS011;36594;45.192;5.722;2023-04-24T14:46:36;0.28;;;0.28;;
34196;SDS011;36594;45.192;5.722;2023-04-24T14:49:25;0.40;;;0.40;;
34196;SDS011;36594;45.192;5.722;2023-04-24T14:52:14;0.40;;;0.40;;
34196;SDS011;36594;45.192;5.722;2023-04-24T14:55:02;0.30;;;0.30;;
34196;SDS011;36594;45.192;5.722;2023-04-24T14:57:51;0.33;;;0.30;;
34196;SDS011;36594;45.192;5.722;2023-04-24T15:00:40;0.30;;;0.30;;
34196;SDS011;36594;45.192;5.722;2023-04-24T15:03:29;0.10;;;0.10;;
34196;SDS011;36594;45.192;5.722;2023-04-24T15:06:17;0.28;;;0.28;;
34196;SDS011;36594;45.192;5.722;2023-04-24T15:09:06;0.40;;;0.40;;
34196;SDS011;36594;45.192;5.722;2023-04-24T15:11:55;0.30;;;0.30;;
34196;SDS011;36594;45.192;5.722;2023-04-24T15:14:44;0.20;;;0.20;;
34196;SDS011;36594;45.192;5.722;2023-04-24T15:17:33;0.30;;;0.30;;
34196;SDS011;36594;45.192;5.722;2023-04-24T15:20:22;0.30;;;0.30;;
34196;SDS011;36594;45.192;5.722;2023-04-24T15:23:10;1.40;;;0.30;;
34196;SDS011;36594;45.192;5.722;2023-04-24T15:25:59;0.23;;;0.23;;
34196;SDS011;36594;45.192;5.722;2023-04-24T15:28:48;0.30;;;0.30;;
34196;SDS011;36594;45.192;5.722;2023-04-24T15:31:38;0.37;;;0.37;;
34196;SDS011;36594;45.192;5.722;2023-04-24T15:34:27;0.30;;;0.30;;
34196;SDS011;36594;45.192;5.722;2023-04-24T15:37:15;0.20;;;0.20;;
34196;SDS011;36594;45.192;5.722;2023-04-24T15:40:04;0.20;;;0.20;;
34196;SDS011;36594;45.192;5.722;2023-04-24T15:42:53;0.13;;;0.13;;
34196;SDS011;36594;45.192;5.722;2023-04-24T15:45:41;0.13;;;0.13;;
34196;SDS011;36594;45.192;5.722;2023-04-24T15:48:31;0.40;;;0.40;;
34196;SDS011;36594;45.192;5.722;2023-04-24T15:51:19;0.30;;;0.30;;
34196;SDS011;36594;45.192;5.722;2023-04-24T15:54:08;0.25;;;0.25;;
34196;SDS011;36594;45.192;5.722;2023-04-24T15:56:56;0.20;;;0.20;;
34196;SDS011;36594;45.192;5.722;2023-04-24T15:59:46;0.30;;;0.30;;
34196;SDS011;36594;45.192;5.722;2023-04-24T16:02:36;0.20;;;0.20;;
34196;SDS011;36594;45.192;5.722;2023-04-24T16:05:25;0.30;;;0.30;;
34196;SDS011;36594;45.192;5.722;2023-04-24T16:08:13;0.60;;;0.30;;
34196;SDS011;36594;45.192;5.722;2023-04-24T16:11:01;0.40;;;0.40;;
34196;SDS011;36594;45.192;5.722;2023-04-24T16:13:50;0.20;;;0.20;;
34196;SDS011;36594;45.192;5.722;2023-04-24T16:16:39;0.23;;;0.23;;
34196;SDS011;36594;45.192;5.722;2023-04-24T16:19:27;0.45;;;0.45;;
34196;SDS011;36594;45.192;5.722;2023-04-24T16:22:16;0.37;;;0.37;;
34196;SDS011;36594;45.192;5.722;2023-04-24T16:25:05;0.20;;;0.20;;
34196;SDS011;36594;45.192;5.722;2023-04-24T16:27:54;0.33;;;0.33;;
34196;SDS011;36594;45.192;5.722;2023-04-24T16:30:43;0.20;;;0.20;;
34196;SDS011;36594;45.192;5.722;2023-04-24T16:33:31;0.20;;;0.20;;
34196;SDS011;36594;45.192;5.722;2023-04-24T16:36:20;0.30;;;0.30;;
34196;SDS011;36594;45.192;5.722;2023-04-24T16:39:09;0.28;;;0.28;;
34196;SDS011;36594;45.192;5.722;2023-04-24T16:41:57;0.10;;;0.10;;
34196;SDS011;36594;45.192;5.722;2023-04-24T16:44:47;0.30;;;0.30;;
34196;SDS011;36594;45.192;5.722;2023-04-24T16:47:36;0.20;;;0.20;;
34196;SDS011;36594;45.192;5.722;2023-04-24T16:50:25;0.25;;;0.25;;
34196;SDS011;36594;45.192;5.722;2023-04-24T16:53:13;0.30;;;0.30;;
34196;SDS011;36594;45.192;5.722;2023-04-24T16:56:02;0.20;;;0.20;;
34196;SDS011;36594;45.192;5.722;2023-04-24T16:58:51;0.20;;;0.20;;
34196;SDS011;36594;45.192;5.722;2023-04-24T17:01:39;0.33;;;0.33;;
34196;SDS011;36594;45.192;5.722;2023-04-24T17:04:28;0.73;;;0.23;;